createdAt,value
2019-02-18T00:01:13.252Z,23.64
2019-02-18T00:03:39.899Z,23.67
2019-02-18T00:06:06.566Z,23.68
2019-02-18T00:08:33.226Z,23.64
2019-02-18T00:10:59.889Z,23.67
2019-02-18T00:13:26.653Z,23.65
2019-02-18T00:15:53.308Z,23.64
2019-02-18T00:18:20.034Z,23.69
2019-02-18T00:20:46.702Z,23.67
2019-02-18T00:23:13.408Z,23.64
2019-02-18T00:25:40.148Z,23.68
2019-02-18T00:28:06.790Z,23.64
2019-02-18T00:30:33.493Z,23.62
2019-02-18T00:33:00.139Z,23.64
2019-02-18T00:35:26.831Z,23.64
2019-02-18T00:37:53.491Z,23.59
2019-02-18T00:40:20.129Z,23.62
2019-02-18T00:42:46.837Z,23.63
2019-02-18T00:45:13.540Z,23.65
2019-02-18T00:47:40.247Z,23.58
2019-02-18T00:50:06.908Z,23.61
2019-02-18T00:52:33.626Z,23.60
2019-02-18T00:55:00.352Z,23.59
2019-02-18T00:57:26.977Z,23.55
2019-02-18T00:59:53.674Z,23.58
2019-02-18T01:02:20.323Z,23.50
2019-02-18T01:04:47.020Z,23.52
2019-02-18T01:07:13.724Z,23.46
2019-02-18T01:09:40.379Z,23.49
2019-02-18T01:12:07.030Z,23.47
2019-02-18T01:14:33.687Z,23.46
2019-02-18T01:17:00.358Z,23.49
2019-02-18T01:19:27.001Z,23.46
2019-02-18T01:21:53.713Z,23.42
2019-02-18T01:24:20.374Z,23.46
2019-02-18T01:26:47.027Z,23.42
2019-02-18T01:29:13.755Z,23.39
2019-02-18T01:31:40.411Z,23.41
2019-02-18T01:34:07.114Z,23.41
2019-02-18T01:36:33.804Z,23.37
2019-02-18T01:39:00.455Z,23.36
2019-02-18T01:41:27.148Z,23.35
2019-02-18T01:43:53.803Z,23.34
2019-02-18T01:46:20.464Z,23.33
2019-02-18T01:48:47.132Z,23.36
2019-02-18T01:51:13.792Z,23.30
2019-02-18T01:53:40.490Z,23.34
2019-02-18T01:56:07.148Z,23.27
2019-02-18T01:58:33.823Z,23.31
2019-02-18T02:01:00.528Z,23.29
2019-02-18T02:03:27.227Z,23.27
2019-02-18T02:05:53.927Z,23.28
2019-02-18T02:08:20.586Z,23.24
2019-02-18T02:10:47.258Z,23.26
2019-02-18T02:15:40.279Z,23.26
2019-02-18T02:18:06.932Z,23.24
2019-02-18T02:20:33.578Z,23.26
2019-02-18T02:23:00.274Z,23.17
2019-02-18T02:25:26.932Z,23.19
2019-02-18T02:27:53.644Z,23.20
2019-02-18T02:30:20.299Z,23.24
2019-02-18T02:32:46.974Z,23.17
2019-02-18T02:35:13.649Z,23.17
2019-02-18T02:37:40.329Z,23.12
2019-02-18T02:40:07.063Z,23.15
2019-02-18T02:42:33.706Z,23.14
2019-02-18T02:45:00.620Z,23.13
2019-02-18T02:47:27.051Z,23.08
2019-02-18T02:49:53.657Z,23.13
2019-02-18T02:52:20.318Z,23.11
2019-02-18T02:54:46.991Z,23.12
2019-02-18T02:57:13.651Z,23.06
2019-02-18T02:59:40.296Z,23.09
2019-02-18T03:02:07.002Z,23.07
2019-02-18T03:04:33.707Z,23.07
2019-02-18T03:07:00.358Z,23.05
2019-02-18T03:09:27.039Z,23.12
2019-02-18T03:11:53.727Z,23.04
2019-02-18T03:14:20.394Z,23.11
2019-02-18T03:16:47.087Z,23.07
2019-02-18T03:19:13.769Z,23.05
2019-02-18T03:21:40.451Z,23.04
2019-02-18T03:24:07.186Z,23.05
2019-02-18T03:26:33.831Z,23.02
2019-02-18T03:29:00.474Z,23.13
2019-02-18T03:31:27.134Z,23.03
2019-02-18T03:33:53.794Z,23.04
2019-02-18T03:36:20.481Z,23.01
2019-02-18T03:38:47.126Z,23.04
2019-02-18T03:41:13.829Z,23.04
2019-02-18T03:43:40.475Z,23.04
2019-02-18T03:46:07.141Z,22.98
2019-02-18T03:48:33.901Z,23.03
2019-02-18T03:51:00.535Z,22.99
2019-02-18T03:53:27.195Z,22.97
2019-02-18T03:55:53.858Z,22.97
2019-02-18T03:58:20.552Z,22.95
2019-02-18T04:00:47.210Z,22.97
2019-02-18T04:03:13.912Z,22.95
2019-02-18T04:05:40.566Z,23.01
2019-02-18T04:08:07.219Z,22.48
2019-02-18T04:10:33.926Z,22.02
2019-02-18T04:13:00.623Z,21.99
2019-02-18T04:15:27.277Z,21.96
2019-02-18T04:17:53.928Z,21.81
2019-02-18T04:20:20.659Z,21.69
2019-02-18T04:22:47.315Z,21.27
2019-02-18T04:25:13.979Z,21.18
2019-02-18T04:27:40.641Z,21.31
2019-02-18T04:30:07.311Z,21.37
2019-02-18T04:32:33.969Z,21.25
2019-02-18T04:35:00.733Z,21.17
2019-02-18T04:37:27.437Z,21.23
2019-02-18T04:39:54.090Z,21.67
2019-02-18T04:42:20.789Z,22.16
2019-02-18T04:44:47.509Z,22.27
2019-02-18T04:47:14.164Z,22.40
2019-02-18T04:49:41.032Z,22.49
2019-02-18T04:52:07.688Z,22.56
2019-02-18T04:54:34.404Z,22.60
2019-02-18T04:57:01.104Z,22.57
2019-02-18T04:59:27.765Z,22.65
2019-02-18T05:01:54.442Z,22.69
2019-02-18T05:04:21.105Z,22.88
2019-02-18T05:06:47.906Z,22.81
2019-02-18T05:09:14.680Z,22.88
2019-02-18T05:11:41.374Z,22.81
2019-02-18T05:14:08.032Z,22.94
2019-02-18T05:16:34.775Z,22.83
2019-02-18T05:19:01.371Z,22.92
2019-02-18T05:21:28.134Z,22.90
2019-02-18T05:23:54.809Z,22.87
2019-02-18T05:26:21.459Z,22.88
2019-02-18T05:28:48.195Z,22.90
2019-02-18T05:31:14.768Z,22.85
2019-02-18T05:33:41.432Z,22.88
2019-02-18T05:36:08.102Z,22.90
2019-02-18T05:38:34.751Z,22.95
2019-02-18T05:41:01.462Z,22.93
2019-02-18T05:43:28.163Z,23.08
2019-02-18T05:45:54.827Z,23.05
2019-02-18T05:48:21.495Z,23.07
2019-02-18T05:50:48.152Z,23.14
2019-02-18T05:53:14.805Z,23.21
2019-02-18T05:55:41.473Z,23.34
2019-02-18T05:58:08.116Z,23.42
2019-02-18T06:00:34.786Z,23.68
2019-02-18T06:03:01.454Z,23.66
2019-02-18T06:05:28.213Z,23.88
2019-02-18T06:07:54.936Z,24.43
2019-02-18T06:10:21.615Z,24.53
2019-02-18T06:12:48.278Z,24.29
2019-02-18T06:15:15.052Z,23.91
2019-02-18T06:17:41.721Z,23.89
2019-02-18T06:20:08.435Z,23.76
2019-02-18T06:22:35.148Z,23.74
2019-02-18T06:25:01.828Z,23.53
2019-02-18T06:27:28.488Z,23.83
2019-02-18T06:29:55.181Z,23.87
2019-02-18T06:32:21.869Z,23.99
2019-02-18T06:34:48.548Z,24.36
2019-02-18T06:37:15.232Z,24.43
2019-02-18T06:39:42.194Z,24.57
2019-02-18T06:42:08.655Z,24.74
2019-02-18T06:44:35.420Z,24.66
2019-02-18T06:47:02.085Z,24.89
2019-02-18T06:49:28.783Z,24.89
2019-02-18T06:51:55.533Z,24.86
2019-02-18T06:54:22.227Z,24.87
2019-02-18T06:56:48.889Z,24.78
2019-02-18T06:59:15.661Z,24.85
2019-02-18T07:01:42.356Z,24.87
2019-02-18T07:04:09.020Z,24.85
2019-02-18T07:06:35.704Z,24.97
2019-02-18T07:09:02.358Z,24.99
2019-02-18T07:11:29.030Z,25.05
2019-02-18T07:13:55.736Z,25.08
2019-02-18T07:16:22.549Z,25.11
2019-02-18T07:18:49.245Z,25.12
2019-02-18T07:21:15.913Z,25.13
2019-02-18T07:23:42.686Z,25.15
2019-02-18T07:26:09.402Z,25.15
2019-02-18T07:28:36.079Z,25.25
2019-02-18T07:31:02.737Z,25.19
2019-02-18T07:33:29.431Z,25.19
2019-02-18T07:35:56.079Z,25.21
2019-02-18T07:38:22.884Z,25.27
2019-02-18T07:40:49.532Z,25.26
2019-02-18T07:43:16.199Z,25.22
2019-02-18T07:45:42.891Z,25.45
2019-02-18T07:48:09.557Z,25.43
2019-02-18T07:50:36.273Z,25.35
2019-02-18T07:53:03.029Z,25.53
2019-02-18T07:55:29.701Z,25.70
2019-02-18T07:57:56.387Z,25.73
2019-02-18T08:00:23.097Z,25.42
2019-02-18T08:02:49.779Z,25.46
2019-02-18T08:05:16.475Z,25.56
2019-02-18T08:07:43.213Z,25.57
2019-02-18T08:10:12.416Z,25.55
2019-02-18T08:12:36.742Z,25.54
2019-02-18T08:15:03.463Z,25.52
2019-02-18T08:17:30.126Z,25.55
2019-02-18T08:19:56.833Z,25.63
2019-02-18T08:22:23.577Z,25.75
2019-02-18T08:24:50.321Z,25.65
2019-02-18T08:27:17.042Z,25.59
2019-02-18T08:29:43.715Z,25.57
2019-02-18T08:32:10.946Z,25.49
2019-02-18T08:34:37.067Z,25.45
2019-02-18T08:37:03.740Z,25.56
2019-02-18T08:39:30.477Z,25.46
2019-02-18T08:41:57.160Z,25.41
2019-02-18T08:44:24.966Z,25.47
2019-02-18T08:46:51.627Z,25.38
2019-02-18T08:49:18.439Z,25.31
2019-02-18T08:51:45.166Z,25.32
2019-02-18T08:54:11.827Z,25.37
2019-02-18T08:56:38.597Z,25.40
2019-02-18T08:59:05.249Z,25.52
2019-02-18T09:01:31.960Z,25.48
2019-02-18T09:03:58.613Z,25.57
2019-02-18T09:06:25.284Z,25.38
2019-02-18T09:08:51.944Z,25.45
2019-02-18T09:11:18.666Z,25.33
2019-02-18T09:13:45.342Z,25.55
2019-02-18T09:16:12.001Z,25.59
2019-02-18T09:18:38.706Z,25.54
2019-02-18T09:21:05.398Z,25.29
2019-02-18T09:23:32.147Z,25.47
2019-02-18T09:25:58.925Z,25.40
2019-02-18T09:28:25.679Z,25.46
2019-02-18T09:30:52.386Z,25.48
2019-02-18T09:33:19.043Z,25.51
2019-02-18T09:35:45.758Z,25.43
2019-02-18T09:38:12.430Z,25.49
2019-02-18T09:40:45.122Z,25.37
2019-02-18T09:43:05.901Z,25.38
2019-02-18T09:45:32.573Z,25.35
2019-02-18T09:47:59.269Z,25.43
2019-02-18T09:50:26.069Z,25.41
2019-02-18T09:52:52.735Z,25.49
2019-02-18T09:55:19.405Z,25.48
2019-02-18T09:57:46.084Z,25.53
2019-02-18T10:00:12.774Z,25.48
2019-02-18T10:02:39.462Z,25.48
2019-02-18T10:05:06.129Z,25.62
2019-02-18T10:07:32.788Z,25.51
2019-02-18T10:09:59.465Z,25.47
2019-02-18T10:12:26.131Z,25.36
2019-02-18T10:14:52.800Z,25.46
2019-02-18T10:17:19.492Z,25.49
2019-02-18T10:19:46.289Z,25.55
2019-02-18T10:22:12.952Z,25.66
2019-02-18T10:24:50.241Z,25.54
2019-02-18T10:27:06.319Z,25.65
2019-02-18T10:29:33.105Z,25.57
2019-02-18T10:31:59.809Z,25.62
2019-02-18T10:34:28.436Z,25.67
2019-02-18T10:36:55.086Z,25.80
2019-02-18T10:39:21.747Z,25.68
2019-02-18T10:41:48.475Z,25.72
2019-02-18T10:44:15.148Z,25.76
2019-02-18T10:46:41.856Z,25.70
2019-02-18T10:49:18.895Z,25.65
2019-02-18T10:51:35.441Z,25.66
2019-02-18T10:54:02.114Z,25.70
2019-02-18T10:56:28.794Z,25.70
2019-02-18T10:58:55.472Z,25.73
2019-02-18T11:01:22.132Z,25.83
2019-02-18T11:03:48.932Z,25.75
2019-02-18T11:06:15.609Z,25.67
2019-02-18T11:08:42.294Z,25.73
2019-02-18T11:11:16.645Z,25.70
2019-02-18T11:13:35.699Z,25.71
2019-02-18T11:16:02.395Z,25.76
2019-02-18T11:18:29.176Z,25.83
2019-02-18T11:20:55.843Z,25.73
2019-02-18T11:23:22.512Z,25.77
2019-02-18T11:25:49.187Z,25.75
2019-02-18T11:28:15.873Z,25.97
2019-02-18T11:30:42.538Z,25.90
2019-02-18T11:33:09.233Z,25.94
2019-02-18T11:35:35.946Z,25.98
2019-02-18T11:38:02.654Z,26.09
2019-02-18T11:40:29.407Z,26.09
2019-02-18T11:42:56.033Z,26.07
2019-02-18T11:45:22.726Z,25.99
2019-02-18T11:47:49.408Z,26.09
2019-02-18T11:50:16.088Z,26.17
2019-02-18T11:52:43.183Z,26.18
2019-02-18T11:55:09.844Z,25.91
2019-02-18T11:57:36.523Z,25.69
2019-02-18T12:00:03.189Z,25.60
2019-02-18T12:02:29.851Z,25.36
2019-02-18T12:04:56.526Z,25.32
2019-02-18T12:07:23.202Z,25.23
2019-02-18T12:09:50.946Z,25.10
2019-02-18T12:12:17.644Z,24.74
2019-02-18T12:14:44.406Z,24.80
2019-02-18T12:17:20.283Z,24.91
2019-02-18T12:19:37.798Z,24.90
2019-02-18T12:22:04.466Z,24.82
2019-02-18T12:24:31.163Z,24.83
2019-02-18T12:26:57.978Z,24.71
2019-02-18T12:29:38.838Z,24.64
2019-02-18T12:31:51.443Z,24.60
2019-02-18T12:34:18.154Z,24.63
2019-02-18T12:36:44.837Z,24.91
2019-02-18T12:39:11.519Z,24.69
2019-02-18T12:41:47.936Z,24.77
2019-02-18T12:44:04.864Z,24.80
2019-02-18T12:46:31.608Z,24.71
2019-02-18T12:48:58.334Z,24.70
2019-02-18T12:51:25.005Z,24.62
2019-02-18T12:53:51.692Z,24.60
2019-02-18T12:56:18.480Z,24.59
2019-02-18T12:58:54.489Z,24.68
2019-02-18T13:01:11.953Z,24.61
2019-02-18T13:03:38.644Z,24.68
2019-02-18T13:06:05.293Z,24.56
2019-02-18T13:08:31.967Z,24.72
2019-02-18T13:10:58.631Z,24.69
2019-02-18T13:13:25.334Z,24.62
2019-02-18T13:15:52.075Z,24.72
2019-02-18T13:18:18.878Z,24.68
2019-02-18T13:20:45.555Z,24.69
2019-02-18T13:23:12.301Z,24.68
2019-02-18T13:25:41.946Z,24.69
2019-02-18T13:28:08.491Z,24.66
2019-02-18T13:30:32.336Z,24.81
2019-02-18T13:32:59.088Z,24.88
2019-02-18T13:35:25.773Z,25.03
2019-02-18T13:37:52.532Z,25.12
2019-02-18T13:40:19.229Z,25.03
2019-02-18T13:42:47.083Z,25.09
2019-02-18T13:45:13.767Z,24.83
2019-02-18T13:47:40.436Z,24.75
2019-02-18T13:50:07.126Z,24.82
2019-02-18T13:52:33.821Z,24.80
2019-02-18T13:55:01.908Z,24.88
2019-02-18T13:57:27.191Z,24.82
2019-02-18T13:59:53.892Z,24.84
2019-02-18T14:02:20.592Z,24.81
2019-02-18T14:04:47.298Z,24.74
2019-02-18T14:07:13.957Z,24.84
2019-02-18T14:09:40.641Z,24.84
2019-02-18T14:12:15.669Z,24.93
2019-02-18T14:14:33.965Z,24.78
2019-02-18T14:17:00.644Z,24.77
2019-02-18T14:19:27.305Z,24.74
2019-02-18T14:21:54.077Z,24.84
2019-02-18T14:24:20.798Z,24.73
2019-02-18T14:26:47.435Z,24.73
2019-02-18T14:29:14.117Z,24.70
2019-02-18T14:31:40.784Z,24.79
2019-02-18T14:34:07.502Z,24.60
2019-02-18T14:36:34.193Z,24.58
2019-02-18T14:39:00.853Z,24.52
2019-02-18T14:41:27.541Z,24.60
2019-02-18T14:43:55.275Z,24.53
2019-02-18T14:46:22.071Z,24.71
2019-02-18T14:48:48.816Z,24.59
2019-02-18T14:51:15.487Z,24.55
2019-02-18T14:53:42.178Z,24.45
2019-02-18T14:56:09.878Z,24.40
2019-02-18T14:58:36.535Z,24.33
2019-02-18T15:01:03.193Z,24.28
2019-02-18T15:03:29.895Z,24.34
2019-02-18T15:05:56.539Z,24.30
2019-02-18T15:08:23.206Z,24.37
2019-02-18T15:10:49.984Z,24.29
2019-02-18T15:13:16.702Z,24.31
2019-02-18T15:15:46.492Z,24.24
2019-02-18T15:18:13.199Z,24.25
2019-02-18T15:20:39.876Z,24.17
2019-02-18T15:23:06.544Z,24.33
2019-02-18T15:25:33.219Z,24.37
2019-02-18T15:27:59.950Z,24.33
2019-02-18T15:30:26.628Z,24.28
2019-02-18T15:32:53.337Z,24.22
2019-02-18T15:35:20.060Z,24.23
2019-02-18T15:37:46.735Z,24.16
2019-02-18T15:40:13.442Z,24.16
2019-02-18T15:42:42.578Z,24.09
2019-02-18T15:45:06.761Z,24.09
2019-02-18T15:47:33.429Z,24.11
2019-02-18T15:50:00.311Z,24.14
2019-02-18T15:52:26.800Z,24.15
2019-02-18T15:54:53.534Z,24.11
2019-02-18T15:57:20.216Z,24.03
2019-02-18T15:59:46.868Z,23.97
2019-02-18T16:02:13.561Z,23.94
2019-02-18T16:04:40.244Z,23.93
2019-02-18T16:07:06.904Z,23.87
2019-02-18T16:09:33.579Z,23.86
2019-02-18T16:12:00.292Z,23.90
2019-02-18T16:14:26.938Z,23.83
2019-02-18T16:16:53.604Z,23.84
2019-02-18T16:19:20.282Z,23.79
2019-02-18T16:21:46.980Z,23.76
2019-02-18T16:24:19.971Z,23.71
2019-02-18T16:26:40.350Z,23.70
2019-02-18T16:29:07.019Z,23.64
2019-02-18T16:31:33.762Z,23.62
2019-02-18T16:34:00.568Z,23.58
2019-02-18T16:36:27.278Z,23.56
2019-02-18T16:38:53.982Z,23.48
2019-02-18T16:41:20.666Z,23.49
2019-02-18T16:43:51.411Z,23.49
2019-02-18T16:46:17.068Z,23.46
2019-02-18T16:48:43.713Z,23.50
2019-02-18T16:51:10.382Z,23.45
2019-02-18T16:53:37.035Z,23.42
2019-02-18T16:56:03.717Z,23.37
2019-02-18T16:58:30.543Z,23.47
2019-02-18T17:00:57.812Z,23.36
2019-02-18T17:03:23.890Z,23.31
2019-02-18T17:05:50.543Z,23.28
2019-02-18T17:08:17.318Z,23.25
2019-02-18T17:10:43.974Z,23.27
2019-02-18T17:13:10.628Z,23.28
2019-02-18T17:15:37.280Z,23.35
2019-02-18T17:18:03.950Z,23.46
2019-02-18T17:20:30.608Z,23.54
2019-02-18T17:22:57.310Z,23.70
2019-02-18T17:25:24.025Z,23.83
2019-02-18T17:27:50.688Z,23.89
2019-02-18T17:30:17.433Z,24.00
2019-02-18T17:32:44.094Z,24.11
2019-02-18T17:35:12.017Z,24.10
2019-02-18T17:37:37.426Z,24.22
2019-02-18T17:40:04.082Z,24.17
2019-02-18T17:42:30.746Z,24.17
2019-02-18T17:44:57.409Z,24.17
2019-02-18T17:47:24.070Z,24.15
2019-02-18T17:49:50.735Z,24.21
2019-02-18T17:52:17.401Z,24.16
2019-02-18T17:54:44.144Z,24.12
2019-02-18T17:57:10.854Z,24.04
2019-02-18T17:59:37.524Z,24.13
2019-02-18T18:02:04.161Z,24.14
2019-02-18T18:04:30.805Z,24.11
2019-02-18T18:06:57.635Z,24.15
2019-02-18T18:09:24.279Z,24.11
2019-02-18T18:11:50.978Z,24.15
2019-02-18T18:14:17.690Z,24.12
2019-02-18T18:16:45.728Z,24.17
2019-02-18T18:19:10.984Z,24.11
2019-02-18T18:21:37.663Z,24.15
2019-02-18T18:24:04.314Z,24.14
2019-02-18T18:26:30.964Z,24.14
2019-02-18T18:28:57.638Z,24.13
2019-02-18T18:31:24.288Z,24.01
2019-02-18T18:33:50.965Z,23.85
2019-02-18T18:36:17.670Z,23.73
2019-02-18T18:38:44.332Z,23.73
2019-02-18T18:41:10.982Z,23.82
2019-02-18T18:43:37.651Z,23.94
2019-02-18T18:46:04.317Z,23.98
2019-02-18T18:48:30.977Z,24.04
2019-02-18T18:50:57.666Z,24.07
2019-02-18T18:53:24.339Z,24.13
2019-02-18T18:55:51.008Z,24.10
2019-02-18T18:58:17.736Z,24.13
2019-02-18T19:00:44.352Z,24.16
2019-02-18T19:03:11.059Z,24.15
2019-02-18T19:05:37.742Z,24.16
2019-02-18T19:08:04.395Z,24.13
2019-02-18T19:10:31.054Z,24.10
2019-02-18T19:12:57.709Z,24.12
2019-02-18T19:15:24.417Z,24.11
2019-02-18T19:17:51.126Z,24.10
2019-02-18T19:20:17.796Z,24.20
2019-02-18T19:22:44.473Z,24.10
2019-02-18T19:25:11.170Z,24.26
2019-02-18T19:27:37.826Z,24.16
2019-02-18T19:30:04.477Z,24.16
2019-02-18T19:32:31.258Z,24.11
2019-02-18T19:34:57.943Z,24.11
2019-02-18T19:37:24.594Z,24.09
2019-02-18T19:39:51.300Z,24.17
2019-02-18T19:42:17.957Z,24.12
2019-02-18T19:44:44.620Z,24.13
2019-02-18T19:47:11.276Z,24.28
2019-02-18T19:49:37.942Z,24.13
2019-02-18T19:52:04.598Z,24.10
2019-02-18T19:54:31.265Z,24.10
2019-02-18T19:56:57.907Z,24.09
2019-02-18T19:59:24.569Z,24.10
2019-02-18T20:01:51.215Z,24.09
2019-02-18T20:04:17.883Z,24.05
2019-02-18T20:06:44.536Z,24.06
2019-02-18T20:09:11.195Z,24.06
2019-02-18T20:11:37.850Z,24.01
2019-02-18T20:14:04.554Z,24.02
2019-02-18T20:16:31.261Z,24.00
2019-02-18T20:18:57.920Z,23.95
2019-02-18T20:21:24.590Z,23.97
2019-02-18T20:23:51.237Z,23.97
2019-02-18T20:26:17.946Z,24.01
2019-02-18T20:28:44.608Z,23.97
2019-02-18T20:31:11.293Z,23.95
2019-02-18T20:33:37.980Z,23.94
2019-02-18T20:36:04.650Z,24.00
2019-02-18T20:38:31.313Z,23.95
2019-02-18T20:40:57.966Z,23.97
2019-02-18T20:43:24.627Z,23.93
2019-02-18T20:45:51.430Z,23.95
2019-02-18T20:48:18.091Z,23.93
2019-02-18T20:50:44.747Z,23.95
2019-02-18T20:53:11.524Z,23.91
2019-02-18T20:55:38.226Z,23.92
2019-02-18T20:58:04.929Z,23.87
2019-02-18T21:00:31.592Z,23.93
2019-02-18T21:02:58.302Z,23.86
2019-02-18T21:05:24.967Z,23.90
2019-02-18T21:07:51.636Z,23.86
2019-02-18T21:10:18.297Z,23.85
2019-02-18T21:12:45.056Z,23.85
2019-02-18T21:15:11.746Z,23.86
2019-02-18T21:17:38.412Z,23.83
2019-02-18T21:20:05.068Z,23.88
2019-02-18T21:22:31.730Z,23.85
2019-02-18T21:24:58.396Z,23.86
2019-02-18T21:27:25.085Z,23.83
2019-02-18T21:29:51.730Z,23.84
2019-02-18T21:32:18.407Z,23.81
2019-02-18T21:34:45.105Z,23.83
2019-02-18T21:37:11.768Z,23.84
2019-02-18T21:39:38.423Z,23.86
2019-02-18T21:42:05.110Z,23.79
2019-02-18T21:44:31.778Z,23.84
2019-02-18T21:46:58.436Z,23.79
2019-02-18T21:49:25.117Z,23.83
2019-02-18T21:51:51.786Z,23.79
2019-02-18T21:54:18.437Z,23.84
2019-02-18T21:56:45.147Z,23.80
2019-02-18T21:59:11.796Z,23.84
2019-02-18T22:01:38.464Z,23.76
2019-02-18T22:04:05.121Z,23.81
2019-02-18T22:06:31.826Z,23.80
2019-02-18T22:08:58.492Z,23.81
2019-02-18T22:11:25.134Z,23.73
2019-02-18T22:13:51.822Z,23.74
2019-02-18T22:16:18.498Z,23.74
2019-02-18T22:18:45.198Z,23.73
2019-02-18T22:21:11.856Z,23.70
2019-02-18T22:23:38.522Z,23.73
2019-02-18T22:26:05.284Z,23.72
2019-02-18T22:28:31.952Z,23.68
2019-02-18T22:30:58.613Z,23.70
2019-02-18T22:33:25.267Z,23.74
2019-02-18T22:35:51.919Z,23.79
2019-02-18T22:38:18.614Z,23.79
2019-02-18T22:40:45.283Z,23.78
2019-02-18T22:43:11.984Z,23.81
2019-02-18T22:45:38.642Z,23.82
2019-02-18T22:48:05.339Z,23.82
2019-02-18T22:50:31.992Z,23.81
2019-02-18T22:52:58.736Z,23.84
2019-02-18T22:55:25.746Z,23.82
2019-02-18T22:57:52.403Z,23.81
2019-02-18T23:00:19.052Z,23.80
2019-02-18T23:02:45.718Z,23.82
2019-02-18T23:05:12.412Z,23.79
2019-02-18T23:07:39.144Z,23.85
2019-02-18T23:10:06.843Z,23.86
2019-02-18T23:12:33.499Z,23.84
2019-02-18T23:15:00.269Z,23.82
2019-02-18T23:17:26.870Z,23.80
2019-02-18T23:19:53.515Z,23.85
2019-02-18T23:22:20.179Z,23.85
2019-02-18T23:24:46.829Z,23.84
2019-02-18T23:27:13.535Z,23.83
2019-02-18T23:29:40.193Z,23.86
2019-02-18T23:32:06.857Z,23.82
2019-02-18T23:34:33.517Z,23.86
2019-02-18T23:37:00.232Z,23.80
2019-02-18T23:39:26.883Z,23.81
2019-02-18T23:41:53.569Z,23.82
2019-02-18T23:44:20.228Z,23.85
2019-02-18T23:46:46.883Z,23.84
2019-02-18T23:49:13.590Z,23.85
2019-02-18T23:51:40.298Z,23.84
2019-02-18T23:54:07.020Z,23.88
2019-02-18T23:56:33.668Z,23.83
2019-02-18T23:59:00.311Z,23.85
